Time;durP1;ratioP1;P1;durP2;ratioP2;P2;SDS_P1;SDS_P2;PMS_P1;PMS_P2;Temp;Humidity;BMP_temperature;BMP_pressure;BME280_temperature;BME280_humidity;BME280_pressure;Samples;Min_cycle;Max_cycle;Signal;HPM_P1;HPM_P2
2021/03/17 00:00:11;;;;;;;7.82;5.00;;;;;;;8.10;61.87;97652.19;4996054;28;20053;-77
2021/03/17 00:02:37;;;;;;;8.07;4.63;;;;;;;8.14;61.40;97650.72;5015537;28;20032;-76
2021/03/17 00:05:04;;;;;;;8.27;5.15;;;;;;;8.06;62.28;97655.19;4998719;28;20500;-77
2021/03/17 00:07:29;;;;;;;8.05;4.88;;;;;;;8.09;61.93;97655.75;4997935;28;20037;-77
2021/03/17 00:09:55;;;;;;;7.68;4.60;;;;;;;8.15;61.74;97647.13;4996899;28;20030;-77
2021/03/17 00:12:20;;;;;;;7.80;4.82;;;;;;;8.14;61.62;97650.72;5007763;28;20037;-76
2021/03/17 00:14:46;;;;;;;9.93;5.30;;;;;;;8.03;61.44;97647.84;5009035;28;20484;-76
2021/03/17 00:17:11;;;;;;;9.15;5.20;;;;;;;8.05;62.15;97648.44;5014824;28;20083;-76
2021/03/17 00:19:37;;;;;;;8.25;5.28;;;;;;;8.03;62.16;97649.66;5001003;28;20439;-77
2021/03/17 00:22:05;;;;;;;8.18;5.07;;;;;;;7.96;62.35;97639.34;5006572;28;20025;-76
2021/03/17 00:24:30;;;;;;;10.45;5.63;;;;;;;8.06;61.84;97650.00;5011668;28;20124;-76
2021/03/17 00:26:55;;;;;;;9.57;5.32;;;;;;;8.07;61.71;97645.59;5030445;28;20112;-77
2021/03/17 00:29:23;;;;;;;7.63;4.88;;;;;;;7.96;62.34;97638.56;5011045;28;20038;-77
2021/03/17 00:31:48;;;;;;;9.52;5.65;;;;;;;7.99;62.13;97644.09;5019110;28;20509;-76
2021/03/17 00:34:14;;;;;;;8.45;5.50;;;;;;;8.04;61.97;97641.66;5010656;28;20479;-77
2021/03/17 00:36:39;;;;;;;9.77;5.75;;;;;;;8.12;62.15;97630.19;5018561;28;20475;-77
2021/03/17 00:39:04;;;;;;;8.18;5.22;;;;;;;8.14;61.15;97635.97;5027957;28;20029;-77
2021/03/17 00:41:30;;;;;;;8.90;5.60;;;;;;;8.18;61.21;97641.53;5002240;28;20029;-77
2021/03/17 00:43:55;;;;;;;9.07;5.45;;;;;;;8.15;60.96;97627.16;5021434;28;20389;-77
2021/03/17 00:46:21;;;;;;;9.90;5.47;;;;;;;8.19;60.84;97633.53;5023285;28;20096;-77
2021/03/17 00:48:46;;;;;;;8.93;5.60;;;;;;;8.11;61.16;97615.66;5047036;28;20028;-76
2021/03/17 00:51:11;;;;;;;10.02;5.93;;;;;;;8.08;61.28;97621.28;5030321;28;20071;-76
2021/03/17 00:53:37;;;;;;;9.35;5.63;;;;;;;8.10;61.79;97618.47;5028010;28;20037;-77
2021/03/17 00:56:02;;;;;;;9.30;5.55;;;;;;;8.15;61.37;97623.78;5015847;28;20034;-77
2021/03/17 00:58:28;;;;;;;8.13;5.22;;;;;;;8.07;61.37;97611.91;4997241;28;20041;-77
2021/03/17 01:00:53;;;;;;;9.48;5.28;;;;;;;7.96;61.80;97623.78;5030466;28;20118;-77
2021/03/17 01:03:18;;;;;;;9.80;6.10;;;;;;;7.95;61.69;97617.03;5012449;28;20025;-77
2021/03/17 01:05:44;;;;;;;8.60;5.35;;;;;;;7.91;62.48;97621.06;5028169;28;20055;-76
2021/03/17 01:08:09;;;;;;;9.13;5.32;;;;;;;7.93;62.23;97626.81;5028728;28;20491;-76
2021/03/17 01:10:42;;;;;;;8.93;5.57;;;;;;;7.64;62.68;97616.16;5007654;28;20056;-76
2021/03/17 01:13:08;;;;;;;7.90;4.75;;;;;;;7.94;62.09;97610.25;5029036;28;20029;-77
2021/03/17 01:15:33;;;;;;;8.30;4.68;;;;;;;7.93;61.99;97613.84;5028077;28;20036;-77
2021/03/17 01:17:59;;;;;;;8.55;5.03;;;;;;;7.85;61.96;97609.75;5013736;28;20021;-76
2021/03/17 01:20:27;;;;;;;8.60;4.90;;;;;;;7.74;62.58;97610.44;5030135;28;20538;-76
2021/03/17 01:22:53;;;;;;;9.68;5.65;;;;;;;7.75;62.59;97611.25;5034856;28;20068;-76
2021/03/17 01:25:37;;;;;;;9.20;5.18;;;;;;;7.52;63.16;97623.03;4999568;28;20115;-76
2021/03/17 01:28:04;;;;;;;8.25;5.00;;;;;;;7.77;62.30;97622.22;4998723;28;20306;-76
2021/03/17 01:30:36;;;;;;;7.68;4.68;;;;;;;7.72;62.22;97620.25;5011697;28;20478;-77
2021/03/17 01:33:02;;;;;;;8.45;5.18;;;;;;;7.85;62.24;97624.53;5000877;28;20127;-77
2021/03/17 01:35:28;;;;;;;8.57;5.05;;;;;;;7.91;61.99;97615.88;5007345;28;20044;-77
2021/03/17 01:37:54;;;;;;;7.65;4.93;;;;;;;7.93;61.80;97619.03;5047331;28;20037;-76
2021/03/17 01:40:22;;;;;;;9.07;5.13;;;;;;;7.79;61.88;97620.97;5014788;28;20033;-77
2021/03/17 01:42:48;;;;;;;8.15;4.70;;;;;;;7.84;61.80;97615.16;5019933;28;20038;-77
2021/03/17 01:45:15;;;;;;;8.45;4.75;;;;;;;7.80;61.82;97621.78;5025604;28;20689;-76
2021/03/17 01:47:44;;;;;;;9.02;5.25;;;;;;;7.78;62.43;97622.00;4997555;28;20022;-77
2021/03/17 01:50:12;;;;;;;9.20;4.60;;;;;;;7.70;62.47;97622.28;5000109;28;20033;-76
2021/03/17 01:52:38;;;;;;;9.18;4.93;;;;;;;7.81;62.37;97625.94;5017413;28;20041;-76
2021/03/17 01:55:08;;;;;;;9.43;5.30;;;;;;;7.59;62.79;97616.00;5024746;28;20021;-77
2021/03/17 01:57:34;;;;;;;10.43;5.80;;;;;;;7.72;62.96;97611.69;5025681;28;20044;-76
2021/03/17 02:00:00;;;;;;;11.10;5.78;;;;;;;7.77;62.84;97617.03;4996133;28;20024;-76
2021/03/17 02:02:26;;;;;;;10.20;5.68;;;;;;;7.83;62.18;97608.38;4997326;28;20485;-77
2021/03/17 02:04:52;;;;;;;9.88;5.70;;;;;;;7.82;62.02;97601.63;5023362;23;20446;-78
2021/03/17 02:07:17;;;;;;;9.38;5.72;;;;;;;7.82;62.35;97614.56;5034236;28;20463;-78
2021/03/17 02:09:42;;;;;;;11.07;6.35;;;;;;;7.78;63.15;97621.19;5050155;28;20037;-78
2021/03/17 02:12:21;;;;;;;10.27;5.60;;;;;;;7.58;63.18;97622.19;5046481;28;20044;-78
2021/03/17 02:15:20;;;;;;;9.77;5.20;;;;;;;7.54;63.06;97613.25;5052543;28;20028;-78
2021/03/17 02:17:48;;;;;;;9.90;6.22;;;;;;;7.79;62.25;97612.41;5053042;28;20115;-78
2021/03/17 02:20:19;;;;;;;10.35;5.65;;;;;;;7.69;62.46;97618.06;5030058;28;20040;-78
2021/03/17 02:22:56;;;;;;;10.15;5.05;;;;;;;7.72;62.73;97616.88;5069900;28;20060;-78
2021/03/17 02:25:49;;;;;;;10.50;6.55;;;;;;;7.56;62.97;97613.81;5036195;28;20028;-78
2021/03/17 02:28:27;;;;;;;11.27;5.95;;;;;;;7.49;63.27;97613.09;5050454;28;20313;-78
2021/03/17 02:31:36;;;;;;;10.45;6.50;;;;;;;7.48;63.02;97609.69;5052698;28;20364;-78
2021/03/17 02:34:07;;;;;;;11.30;6.13;;;;;;;7.73;62.83;97615.84;4987623;28;20053;-78
2021/03/17 02:36:54;;;;;;;12.45;6.57;;;;;;;7.50;62.92;97618.06;5008443;28;20038;-78
2021/03/17 02:39:24;;;;;;;10.88;6.13;;;;;;;7.68;61.94;97608.75;4992229;28;20042;-78
2021/03/17 02:41:57;;;;;;;11.38;6.57;;;;;;;7.62;62.64;97612.16;5002853;28;20105;-78
2021/03/17 02:44:25;;;;;;;10.60;5.97;;;;;;;7.68;61.89;97617.28;4990651;28;20470;-78
2021/03/17 02:46:51;;;;;;;10.57;5.55;;;;;;;7.82;62.03;97614.56;4988130;28;20062;-78
2021/03/17 02:49:22;;;;;;;12.23;6.90;;;;;;;7.63;62.05;97613.78;4986765;28;20088;-78
2021/03/17 02:51:57;;;;;;;12.45;5.93;;;;;;;7.60;62.38;97619.38;4991332;28;20053;-78
2021/03/17 02:54:23;;;;;;;9.20;5.55;;;;;;;7.79;61.85;97612.41;4991317;28;20176;-78
2021/03/17 02:56:53;;;;;;;12.32;6.20;;;;;;;7.67;62.15;97626.06;5008351;28;20040;-78
2021/03/17 02:59:19;;;;;;;10.88;6.45;;;;;;;7.76;62.11;97618.84;4975683;28;20092;-78
2021/03/17 03:01:50;;;;;;;9.48;5.82;;;;;;;7.63;62.67;97618.94;4975820;28;20037;-78
2021/03/17 03:04:15;;;;;;;9.43;5.65;;;;;;;7.71;62.30;97621.28;4997325;28;20064;-78
2021/03/17 03:06:44;;;;;;;10.68;6.00;;;;;;;7.59;62.19;97623.78;5038932;28;20029;-78
2021/03/17 03:09:10;;;;;;;13.45;6.93;;;;;;;7.64;62.90;97621.34;5043658;28;20542;-78
2021/03/17 03:11:36;;;;;;;12.10;7.05;;;;;;;7.67;62.69;97620.09;5056583;28;20084;-78
2021/03/17 03:14:03;;;;;;;10.75;6.50;;;;;;;7.73;63.11;97621.03;5038576;28;20020;-78
2021/03/17 03:16:29;;;;;;;12.18;6.28;;;;;;;7.69;63.17;97626.66;5056352;28;20252;-78
2021/03/17 03:18:55;;;;;;;14.13;7.50;;;;;;;7.65;63.34;97633.25;5039570;28;20418;-78
2021/03/17 03:21:22;;;;;;;13.02;7.53;;;;;;;7.65;63.12;97632.47;5056466;28;20032;-78
2021/03/17 03:23:47;;;;;;;14.70;7.65;;;;;;;7.73;62.94;97640.00;5022881;28;20055;-78
2021/03/17 03:26:15;;;;;;;13.70;7.30;;;;;;;7.75;63.25;97637.19;5057465;28;20402;-78
2021/03/17 03:28:41;;;;;;;13.88;7.60;;;;;;;7.75;62.78;97637.19;5056667;28;20024;-78
2021/03/17 03:31:06;;;;;;;16.52;8.55;;;;;;;7.74;62.69;97636.38;5015602;28;20036;-78
2021/03/17 03:33:32;;;;;;;14.23;8.48;;;;;;;7.82;62.66;97637.91;5052808;28;20033;-78
2021/03/17 03:35:58;;;;;;;14.75;8.25;;;;;;;7.73;63.00;97634.81;5031037;28;20537;-78
2021/03/17 03:38:24;;;;;;;15.73;8.48;;;;;;;7.76;63.42;97633.56;5034459;28;20037;-78
2021/03/17 03:40:49;;;;;;;15.40;7.68;;;;;;;7.74;62.96;97636.38;5037716;28;20418;-78
2021/03/17 03:43:14;;;;;;;14.93;7.57;;;;;;;7.71;63.26;97636.81;5023737;28;20086;-78
2021/03/17 03:45:40;;;;;;;16.20;8.80;;;;;;;7.74;62.98;97641.56;5036323;28;20029;-78
2021/03/17 03:48:07;;;;;;;16.40;8.82;;;;;;;7.66;63.42;97644.44;5039747;28;20029;-78
2021/03/17 03:50:43;;;;;;;15.70;8.45;;;;;;;7.46;63.51;97635.03;5039205;28;20113;-78
2021/03/17 03:53:17;;;;;;;15.10;8.25;;;;;;;7.63;62.95;97644.88;5023011;28;20028;-78
2021/03/17 03:55:49;;;;;;;17.48;9.27;;;;;;;7.65;63.10;97648.81;5011266;28;20037;-78
2021/03/17 03:58:38;;;;;;;15.10;8.73;;;;;;;7.30;63.58;97646.72;5068098;28;20025;-78
2021/03/17 04:01:09;;;;;;;18.42;9.60;;;;;;;7.51;63.79;97647.34;5022736;28;20260;-78
2021/03/17 04:03:42;;;;;;;15.80;8.30;;;;;;;7.69;62.67;97649.19;5052223;28;20048;-78
2021/03/17 04:06:13;;;;;;;;;;;;;;;7.24;63.65;97649.38;5016435;28;20113;-78
2021/03/17 04:08:48;;;;;;;15.68;7.88;;;;;;;7.30;63.91;97651.91;5028593;28;19917;-78
2021/03/17 04:11:14;;;;;;;16.17;8.25;;;;;;;7.44;63.96;97659.59;5037065;28;20029;-78
2021/03/17 04:13:40;;;;;;;15.68;8.70;;;;;;;7.51;63.49;97655.13;5052373;28;20048;-79
2021/03/17 04:16:06;;;;;;;15.90;8.98;;;;;;;7.32;64.85;97660.25;5020707;28;20505;-79
2021/03/17 04:18:36;;;;;;;15.25;8.32;;;;;;;7.28;64.22;97661.69;5028399;28;20029;-78
2021/03/17 04:21:04;;;;;;;15.50;8.23;;;;;;;7.42;63.95;97658.97;5027219;28;20029;-78
2021/03/17 04:23:30;;;;;;;13.38;7.38;;;;;;;7.63;63.07;97656.03;5053203;28;20040;-79
2021/03/17 04:25:56;;;;;;;16.42;8.27;;;;;;;7.62;62.93;97659.59;5019107;28;20495;-79
2021/03/17 04:28:25;;;;;;;14.05;7.70;;;;;;;7.23;63.80;97677.06;5028136;28;20382;-78
2021/03/17 04:30:51;;;;;;;16.55;8.15;;;;;;;7.44;63.63;97672.53;5013674;28;20065;-79
2021/03/17 04:33:17;;;;;;;15.50;8.05;;;;;;;7.52;63.32;97663.69;5054444;28;20028;-79
2021/03/17 04:35:43;;;;;;;15.35;8.35;;;;;;;7.62;62.85;97664.78;5025288;28;20152;-79
2021/03/17 04:38:10;;;;;;;16.77;8.30;;;;;;;7.28;63.64;97669.47;5023164;28;20023;-79
2021/03/17 04:40:36;;;;;;;15.95;8.18;;;;;;;7.47;63.35;97672.09;5005819;28;20040;-79
2021/03/17 04:43:03;;;;;;;13.57;7.78;;;;;;;7.17;63.13;97672.72;5036278;28;20048;-79
2021/03/17 04:45:29;;;;;;;14.75;8.48;;;;;;;7.23;63.72;97682.25;5051269;28;20379;-79
2021/03/17 04:47:54;;;;;;;14.85;8.18;;;;;;;7.26;63.81;97681.81;5046785;28;20225;-79
2021/03/17 04:50:24;;;;;;;16.35;7.85;;;;;;;7.41;63.25;97678.13;5035061;28;20033;-79
2021/03/17 04:52:50;;;;;;;16.25;8.77;;;;;;;7.51;63.04;97683.63;5034186;28;20472;-79
2021/03/17 04:55:16;;;;;;;16.63;8.40;;;;;;;7.38;63.22;97683.72;5034233;28;20060;-79
2021/03/17 04:57:43;;;;;;;17.60;8.73;;;;;;;7.30;63.20;97684.78;5016538;28;20033;-79
2021/03/17 05:00:17;;;;;;;15.77;7.82;;;;;;;6.91;63.81;97679.66;5012803;28;20518;-79
2021/03/17 05:02:49;;;;;;;15.05;8.00;;;;;;;7.00;63.85;97676.81;5052498;28;20035;-79
2021/03/17 05:05:14;;;;;;;16.58;8.68;;;;;;;7.05;64.18;97676.97;5022006;28;20394;-79
2021/03/17 05:07:41;;;;;;;17.48;8.18;;;;;;;6.89;64.23;97671.31;5034724;28;20124;-79
2021/03/17 05:10:11;;;;;;;17.73;9.40;;;;;;;6.87;64.61;97670.72;5050964;28;20029;-79
2021/03/17 05:12:38;;;;;;;17.27;8.75;;;;;;;6.90;64.30;97685.03;5021482;28;20030;-79
2021/03/17 05:15:06;;;;;;;15.15;8.20;;;;;;;6.92;65.08;97689.00;5012285;28;20074;-79
2021/03/17 05:17:33;;;;;;;15.98;8.25;;;;;;;7.11;64.26;97691.66;5024938;28;20034;-79
2021/03/17 05:19:59;;;;;;;16.33;8.05;;;;;;;7.14;63.44;97693.84;5020070;28;20068;-79
2021/03/17 05:22:25;;;;;;;16.40;8.63;;;;;;;7.11;64.23;97689.06;5053025;28;20082;-79
2021/03/17 05:24:52;;;;;;;15.75;7.95;;;;;;;7.16;63.64;97702.19;5019191;28;20036;-79
2021/03/17 05:27:20;;;;;;;13.55;7.60;;;;;;;7.04;63.47;97689.16;5035060;28;20029;-79
2021/03/17 05:29:47;;;;;;;15.82;8.38;;;;;;;7.18;63.41;97687.25;5013169;28;20163;-79
2021/03/17 05:32:13;;;;;;;15.05;7.93;;;;;;;7.16;63.58;97697.00;5029194;28;20029;-80
2021/03/17 05:34:59;;;;;;;14.50;8.40;;;;;;;6.89;64.01;97699.78;5033355;28;20162;-79
2021/03/17 05:37:24;;;;;;;;;;;;;;;6.67;64.68;97703.66;5032000;28;20033;-80
2021/03/17 05:39:50;;;;;;;14.85;8.18;;;;;;;6.98;63.93;97684.00;5019081;28;20399;-80
2021/03/17 05:42:16;;;;;;;16.10;8.52;;;;;;;7.19;63.23;97696.59;5032751;28;20053;-79
2021/03/17 05:44:41;;;;;;;13.30;7.30;;;;;;;7.19;63.68;97691.41;5029584;28;20497;-80
2021/03/17 05:47:09;;;;;;;13.38;7.82;;;;;;;7.21;63.08;97697.19;5031000;28;20033;-80
2021/03/17 05:49:36;;;;;;;12.98;6.85;;;;;;;7.10;63.10;97700.47;5033939;28;20032;-80
2021/03/17 05:52:02;;;;;;;13.27;7.93;;;;;;;7.00;63.67;97694.94;5029310;28;20375;-80
2021/03/17 05:54:27;;;;;;;14.45;8.00;;;;;;;7.16;63.43;97702.19;4990224;28;20160;-80
2021/03/17 05:56:53;;;;;;;16.20;7.40;;;;;;;7.10;63.65;97703.03;5010362;28;20617;-80
2021/03/17 05:59:19;;;;;;;15.50;8.25;;;;;;;6.91;64.46;97715.09;5036927;28;20068;-79
2021/03/17 06:01:44;;;;;;;13.70;7.18;;;;;;;6.75;64.59;97714.56;5030709;28;20033;-79
2021/03/17 06:04:10;;;;;;;15.35;7.07;;;;;;;6.51;65.46;97713.47;5022802;28;20040;-80
2021/03/17 06:06:38;;;;;;;14.88;7.53;;;;;;;6.66;64.85;97720.19;5010534;28;20029;-79
2021/03/17 06:09:04;;;;;;;14.77;7.18;;;;;;;6.93;64.60;97721.66;5017567;28;20025;-79
2021/03/17 06:11:30;;;;;;;13.68;7.78;;;;;;;6.96;63.04;97722.22;5022034;28;20038;-79
2021/03/17 06:13:57;;;;;;;14.70;7.55;;;;;;;6.92;63.75;97717.50;5019266;28;20025;-79
2021/03/17 06:16:23;;;;;;;17.73;9.23;;;;;;;6.89;63.39;97733.44;5046590;28;20483;-79
2021/03/17 06:18:53;;;;;;;12.70;7.30;;;;;;;6.82;63.54;97727.50;5005395;28;20033;-79
2021/03/17 06:21:20;;;;;;;16.88;8.05;;;;;;;7.08;63.41;97736.91;5046253;28;20033;-79
2021/03/17 06:23:46;;;;;;;17.45;8.30;;;;;;;6.90;64.01;97742.75;5029971;28;20071;-79
2021/03/17 06:26:12;;;;;;;17.02;8.05;;;;;;;6.92;64.31;97745.97;5029870;28;20440;-79
2021/03/17 06:28:39;;;;;;;16.13;8.23;;;;;;;6.98;63.74;97752.09;5016770;28;20104;-79
2021/03/17 06:31:05;;;;;;;16.88;8.32;;;;;;;6.87;64.39;97744.97;5027433;28;20037;-79
2021/03/17 06:33:30;;;;;;;16.40;8.63;;;;;;;6.83;63.99;97744.59;5030485;28;20055;-79
2021/03/17 06:36:15;;;;;;;16.92;8.82;;;;;;;6.28;66.31;97757.09;5030799;28;20024;-79
2021/03/17 06:38:42;;;;;;;16.55;8.63;;;;;;;6.78;64.52;97757.34;5018371;28;20037;-80
2021/03/17 06:41:07;;;;;;;15.75;8.82;;;;;;;6.83;65.00;97756.75;5000756;28;20516;-79
2021/03/17 06:43:49;;;;;;;38.60;18.17;;;;;;;6.63;64.42;97754.22;5014289;28;20033;-79
2021/03/17 06:46:17;;;;;;;29.02;15.38;;;;;;;6.70;64.66;97757.56;5027104;28;20056;-79
2021/03/17 06:48:43;;;;;;;48.60;30.05;;;;;;;6.78;64.28;97756.56;5032412;28;20025;-79
2021/03/17 06:51:10;;;;;;;19.98;11.77;;;;;;;6.94;64.10;97753.53;5009492;28;20033;-79
2021/03/17 06:53:44;;;;;;;17.92;9.30;;;;;;;6.95;64.13;97757.69;5030413;28;20029;-79
2021/03/17 06:56:10;;;;;;;19.23;10.30;;;;;;;7.17;63.36;97765.94;5030697;28;20545;-79
2021/03/17 06:58:40;;;;;;;17.35;9.25;;;;;;;7.05;63.82;97770.97;5047594;28;20099;-79
2021/03/17 07:01:35;;;;;;;16.85;10.45;;;;;;;6.91;63.21;97778.00;5047394;28;20380;-80
2021/03/17 07:04:00;;;;;;;17.33;9.20;;;;;;;7.18;64.60;97787.44;4997979;28;20065;-79
2021/03/17 07:06:26;;;;;;;16.23;8.65;;;;;;;7.36;63.87;97792.75;5046499;28;20040;-79
2021/03/17 07:08:52;;;;;;;22.27;9.57;;;;;;;7.15;63.87;97798.25;5030833;28;20044;-79
2021/03/17 07:11:26;;;;;;;16.50;8.75;;;;;;;6.82;64.75;97799.97;5028581;28;20041;-80
2021/03/17 07:13:53;;;;;;;15.70;8.23;;;;;;;7.15;64.04;97798.25;5014430;28;20112;-79
2021/03/17 07:16:38;;;;;;;18.05;8.88;;;;;;;6.95;63.61;97799.09;5024927;28;20535;-79
2021/03/17 07:19:05;;;;;;;18.15;9.70;;;;;;;7.22;63.65;97792.03;5021152;28;20058;-79
2021/03/17 07:21:35;;;;;;;17.92;8.50;;;;;;;7.16;63.23;97774.69;5033649;28;20038;-79
2021/03/17 07:24:02;;;;;;;15.57;8.02;;;;;;;7.24;62.63;97766.69;5030194;28;20033;-79
2021/03/17 07:26:30;;;;;;;18.00;9.48;;;;;;;7.32;63.50;97774.22;5030696;28;20087;-79
2021/03/17 07:29:07;;;;;;;16.27;8.68;;;;;;;6.70;64.42;97775.69;5014699;28;20115;-79
2021/03/17 07:31:37;;;;;;;18.33;8.85;;;;;;;7.24;63.76;97782.25;5012491;28;20361;-79
2021/03/17 07:34:25;;;;;;;15.55;8.35;;;;;;;7.23;63.49;97780.66;5029455;28;20033;-79
2021/03/17 07:36:53;;;;;;;16.23;8.40;;;;;;;7.23;62.62;97785.03;5027744;28;20033;-79
2021/03/17 07:39:20;;;;;;;13.43;6.97;;;;;;;7.07;63.13;97784.50;5019211;28;20045;-79
2021/03/17 07:41:47;;;;;;;16.55;7.72;;;;;;;7.03;63.69;97785.16;5032709;28;20037;-79
2021/03/17 07:44:14;;;;;;;14.85;7.97;;;;;;;7.33;63.14;97785.38;5013705;28;20514;-79
2021/03/17 07:46:41;;;;;;;15.05;8.23;;;;;;;7.15;63.82;97780.91;5031321;28;20033;-79
2021/03/17 07:49:08;;;;;;;13.95;7.82;;;;;;;7.46;63.20;97780.13;5030641;28;20021;-79
2021/03/17 07:51:36;;;;;;;14.07;7.35;;;;;;;7.80;62.42;97772.91;4998911;28;20479;-79
2021/03/17 07:54:03;;;;;;;17.75;7.50;;;;;;;7.92;61.86;97772.22;5002461;28;20029;-79
2021/03/17 07:56:29;;;;;;;14.48;8.10;;;;;;;8.09;62.04;97773.28;5010066;28;20032;-79
2021/03/17 07:58:54;;;;;;;15.90;8.15;;;;;;;8.04;61.72;97765.34;5014950;28;20036;-79
2021/03/17 08:01:22;;;;;;;14.65;7.53;;;;;;;7.96;62.24;97778.59;5023490;28;20506;-79
2021/03/17 08:03:51;;;;;;;16.65;8.02;;;;;;;8.02;61.35;97770.75;5011072;28;20418;-79
2021/03/17 08:06:20;;;;;;;15.10;8.35;;;;;;;8.09;60.59;97770.69;5004788;28;20045;-79
2021/03/17 08:08:49;;;;;;;12.18;7.22;;;;;;;8.37;59.75;97785.78;5009721;28;20021;-79
2021/03/17 08:11:18;;;;;;;11.80;6.72;;;;;;;8.27;59.31;97780.28;4983179;28;20033;-79
2021/03/17 08:13:46;;;;;;;13.73;7.05;;;;;;;8.10;61.00;97784.44;5012500;28;20049;-79
2021/03/17 08:16:16;;;;;;;11.77;6.65;;;;;;;8.19;60.54;97785.75;5015407;28;20025;-79
2021/03/17 08:18:43;;;;;;;11.85;6.03;;;;;;;8.12;60.62;97790.22;5032931;28;20086;-79
2021/03/17 08:21:08;;;;;;;21.88;10.73;;;;;;;7.87;62.10;97778.06;5021427;28;20345;-79
2021/03/17 08:23:53;;;;;;;11.68;6.45;;;;;;;7.89;60.54;97783.81;5016058;28;20032;-79
2021/03/17 08:26:21;;;;;;;11.57;6.10;;;;;;;8.12;59.24;97785.03;5016450;28;20025;-79
2021/03/17 08:28:52;;;;;;;17.95;10.15;;;;;;;8.12;60.34;97785.03;5019936;28;20065;-79
2021/03/17 08:31:35;;;;;;;12.48;7.05;;;;;;;8.01;61.08;97779.53;5022646;28;20053;-79
2021/03/17 08:34:24;;;;;;;12.82;7.15;;;;;;;7.95;61.02;97782.97;5031504;28;20043;-79
2021/03/17 08:36:52;;;;;;;13.13;6.53;;;;;;;8.39;59.67;97781.16;5038117;28;20074;-79
2021/03/17 08:39:29;;;;;;;10.90;5.88;;;;;;;8.40;59.07;97776.78;5007997;28;20515;-79
2021/03/17 08:41:57;;;;;;;11.73;6.20;;;;;;;8.57;58.72;97767.44;5038126;28;20033;-79
2021/03/17 08:44:28;;;;;;;12.80;6.50;;;;;;;8.37;59.04;97770.22;5036747;28;20190;-79
2021/03/17 08:46:56;;;;;;;10.10;6.00;;;;;;;8.52;58.70;97766.53;5041922;28;20531;-79
2021/03/17 08:49:31;;;;;;;11.25;6.63;;;;;;;8.34;59.31;97765.44;5009042;28;20083;-79
2021/03/17 08:52:00;;;;;;;10.18;6.07;;;;;;;8.35;59.02;97769.66;5032307;28;20121;-79
2021/03/17 08:54:41;;;;;;;9.82;5.82;;;;;;;8.31;59.29;97768.50;4976160;28;20034;-79
2021/03/17 08:57:07;;;;;;;12.27;5.68;;;;;;;8.66;59.35;97769.78;5037452;28;20033;-79
2021/03/17 08:59:55;;;;;;;10.05;5.95;;;;;;;8.45;58.55;97774.38;5018542;28;20040;-79
2021/03/17 09:02:26;;;;;;;10.75;6.28;;;;;;;8.55;59.12;97776.44;5011216;28;20458;-79
2021/03/17 09:04:58;;;;;;;11.40;5.70;;;;;;;8.51;59.55;97780.50;5009321;28;20273;-79
2021/03/17 09:07:34;;;;;;;9.45;5.20;;;;;;;8.28;59.69;97781.91;5027458;28;20733;-79
2021/03/17 09:10:10;;;;;;;11.18;6.40;;;;;;;8.36;59.82;97776.44;5010725;28;20030;-79
2021/03/17 09:12:38;;;;;;;10.25;6.03;;;;;;;8.60;60.81;97781.78;4995951;28;20033;-79
2021/03/17 09:15:09;;;;;;;10.80;5.88;;;;;;;8.54;59.17;97780.84;5028528;28;20067;-79
2021/03/17 09:17:46;;;;;;;11.43;5.93;;;;;;;8.63;59.28;97778.78;5008001;28;20044;-79
2021/03/17 09:20:38;;;;;;;9.67;5.90;;;;;;;8.75;59.08;97777.03;5016424;28;20124;-79
2021/03/17 09:23:06;;;;;;;10.48;6.00;;;;;;;8.88;59.06;97773.50;5008935;28;20407;-79
2021/03/17 09:26:09;;;;;;;10.07;5.38;;;;;;;8.80;57.89;97778.97;5025678;28;20126;-80
2021/03/17 09:28:35;;;;;;;10.95;5.45;;;;;;;9.14;58.42;97771.59;5026425;28;20116;-79
2021/03/17 09:31:09;;;;;;;8.93;5.57;;;;;;;8.70;57.59;97774.28;5023111;28;20692;-79
2021/03/17 09:33:55;;;;;;;11.13;6.00;;;;;;;9.01;58.17;97767.34;5035403;28;20049;-79
2021/03/17 09:36:24;;;;;;;10.00;6.07;;;;;;;8.84;59.27;97768.94;5013851;28;20033;-79
2021/03/17 09:38:52;;;;;;;12.52;6.95;;;;;;;8.64;60.77;97775.19;5001247;28;20492;-79
2021/03/17 09:41:21;;;;;;;11.38;6.63;;;;;;;8.76;59.24;97778.63;5013754;28;20065;-79
2021/03/17 09:43:48;;;;;;;12.45;6.68;;;;;;;9.05;58.36;97765.91;5008729;28;20060;-79
2021/03/17 09:46:35;;;;;;;11.85;6.00;;;;;;;8.95;57.84;97760.44;5026744;28;20098;-79
2021/03/17 09:49:04;;;;;;;;;;;;;;;8.81;56.86;97776.16;5034233;28;20037;-79
2021/03/17 09:51:33;;;;;;;12.40;7.00;;;;;;;9.27;56.89;97768.81;5018024;28;20299;-79
2021/03/17 09:54:03;;;;;;;9.05;5.38;;;;;;;9.21;56.60;97761.88;5004233;28;20033;-79
2021/03/17 09:56:52;;;;;;;10.88;6.53;;;;;;;8.80;59.07;97768.59;5010720;28;20025;-79
2021/03/17 09:59:27;;;;;;;9.57;6.00;;;;;;;9.05;57.84;97768.50;5011148;28;20487;-79
2021/03/17 10:01:55;;;;;;;10.02;6.03;;;;;;;9.06;57.23;97764.88;5021246;28;20119;-79
2021/03/17 10:04:30;;;;;;;11.90;5.82;;;;;;;9.14;57.75;97766.38;5044021;28;20119;-79
2021/03/17 10:06:58;;;;;;;8.40;5.35;;;;;;;8.90;57.09;97773.28;5038899;28;20051;-79
2021/03/17 10:09:29;;;;;;;9.50;5.22;;;;;;;8.71;57.84;97751.75;5029653;28;20048;-80
2021/03/17 10:12:11;;;;;;;10.52;5.97;;;;;;;8.87;58.43;97763.31;5012783;28;20624;-79
2021/03/17 10:14:42;;;;;;;7.65;4.13;;;;;;;8.85;57.44;97758.34;5025111;28;20462;-79
2021/03/17 10:17:08;;;;;;;7.30;4.35;;;;;;;9.09;56.75;97754.06;5022107;28;20029;-78
2021/03/17 10:19:35;;;;;;;8.43;4.80;;;;;;;9.10;58.50;97747.03;5020883;28;20036;-78
2021/03/17 10:22:01;;;;;;;8.30;4.47;;;;;;;9.28;59.15;97739.19;5010554;28;20033;-78
2021/03/17 10:24:41;;;;;;;6.68;3.92;;;;;;;9.75;57.93;97744.50;5012790;28;20036;-79
2021/03/17 10:27:10;;;;;;;8.35;4.40;;;;;;;10.19;55.96;97749.38;5012179;28;20407;-78
2021/03/17 10:29:37;;;;;;;5.40;3.33;;;;;;;10.13;55.31;97745.09;5023826;28;20168;-78
2021/03/17 10:32:04;;;;;;;9.38;5.30;;;;;;;9.99;55.47;97741.13;5029284;28;20032;-79
2021/03/17 10:34:29;;;;;;;6.47;3.78;;;;;;;10.55;54.55;97737.13;5031515;28;20049;-79
2021/03/17 10:36:56;;;;;;;8.13;4.00;;;;;;;10.10;53.75;97735.13;4991354;28;20384;-79
2021/03/17 10:39:30;;;;;;;17.80;9.63;;;;;;;10.09;55.28;97736.94;5037044;28;20573;-79
2021/03/17 10:41:56;;;;;;;11.07;6.00;;;;;;;10.46;54.72;97735.91;4987475;28;20030;-79
2021/03/17 10:44:25;;;;;;;5.30;3.10;;;;;;;10.83;53.87;97727.75;5021166;28;20082;-78
2021/03/17 10:47:00;;;;;;;8.77;4.43;;;;;;;10.63;54.01;97736.00;5003287;28;20030;-79
2021/03/17 10:49:26;;;;;;;5.47;2.72;;;;;;;10.85;53.70;97734.34;5013714;28;20127;-79
2021/03/17 10:51:52;;;;;;;5.78;3.05;;;;;;;10.93;53.69;97735.78;5044405;28;20124;-78
2021/03/17 10:54:27;;;;;;;11.00;5.72;;;;;;;10.37;53.92;97738.09;5015669;28;20022;-79
2021/03/17 10:56:53;;;;;;;4.18;3.10;;;;;;;10.51;53.84;97730.81;5020352;28;20032;-79
2021/03/17 10:59:29;;;;;;;4.47;2.33;;;;;;;10.48;53.38;97726.84;5008633;28;20128;-79
2021/03/17 11:02:20;;;;;;;5.18;2.60;;;;;;;9.43;55.60;97733.59;5002018;28;20045;-79
2021/03/17 11:05:17;;;;;;;4.53;2.45;;;;;;;9.35;55.91;97749.50;5047671;28;20041;-79
2021/03/17 11:07:45;;;;;;;1.88;1.00;;;;;;;8.39;58.47;97741.47;5046140;28;20024;-80
2021/03/17 11:10:37;;;;;;;1.30;0.85;;;;;;;8.38;58.78;97732.91;5021120;28;20033;-80
2021/03/17 11:13:08;;;;;;;6.50;3.47;;;;;;;9.05;60.46;97734.72;5047667;28;20059;-80
2021/03/17 11:15:33;;;;;;;8.00;3.83;;;;;;;9.29;59.50;97735.59;5017617;28;20032;-79
2021/03/17 11:17:59;;;;;;;6.53;4.22;;;;;;;9.86;57.86;97735.13;5010939;28;20366;-80
2021/03/17 11:20:25;;;;;;;5.18;2.50;;;;;;;10.05;58.88;97722.00;5009043;28;20364;-79
2021/03/17 11:22:51;;;;;;;19.08;10.60;;;;;;;10.17;56.55;97733.19;5015202;28;20521;-79
2021/03/17 11:25:25;;;;;;;3.05;2.20;;;;;;;10.81;54.37;97720.22;5034506;28;20060;-80
2021/03/17 11:27:52;;;;;;;3.83;2.53;;;;;;;10.52;57.19;97722.00;5034058;28;20040;-80
2021/03/17 11:30:20;;;;;;;7.38;4.00;;;;;;;11.55;54.85;97731.63;5030602;28;20090;-79
2021/03/17 11:32:45;;;;;;;0.93;0.50;;;;;;;11.03;52.05;97733.34;5029283;28;20036;-79
2021/03/17 11:35:11;;;;;;;1.23;0.65;;;;;;;10.94;52.90;97734.75;5022076;28;20388;-79
2021/03/17 11:37:37;;;;;;;1.17;0.68;;;;;;;10.78;53.25;97735.47;5017163;28;20086;-79
2021/03/17 11:40:08;;;;;;;0.60;0.43;;;;;;;10.42;53.26;97732.19;5044601;28;20041;-80
2021/03/17 11:42:35;;;;;;;0.82;0.65;;;;;;;10.22;53.05;97728.09;5044732;28;20051;-80
2021/03/17 11:45:01;;;;;;;0.70;0.60;;;;;;;10.25;53.72;97729.47;5004910;28;20036;-79
2021/03/17 11:47:26;;;;;;;1.00;0.50;;;;;;;10.25;53.91;97722.44;5007142;28;20034;-80